Risingsun, Ohio
Current Conditions -  °F | °C
As of 3:53 AM on Wednesday 22 Oct 2014 (Local Time) from KTDZ Reporting Station
Overcast Overcast  
Wind Chill: 42°   Ceiling: 1800
Heat Index: 46°   Visibility: 10mi
Dew Point: 37°   Wind: 8mph
Humidity: 71%   Direction: 340°NNW
Pressure: 30.21"   Gusts: NA
Location:  41.27°N, 83.42°W
Report Text: KTDZ 220753Z AUTO 34007KT 10SM OVC018 08/03 A3021 RMK AO2 SLP234 T00780028 TSNO
Loading
Personal Weather Stations






























Interactive Weather Map New forecast layout! Learn more

10-Day Weather Forecast

Advertisements
Track Severe Weather on mobile